Azurina — SD2515 — position and weather

sailwx.info

Track history (hours):
 
Tides and Currents Weather Stations Pressure Air Temp Water Temp Dewpoint Dewpoint Depression Visibility Wind Speed Wind Dir Waves Ship Positions

Azurina

Last reported at 2017-Jul-08 10:56 UTC. Time now 2017-Jul-21 08:45 UTC.
Position N 59°45' E 018°44'.
Warning: this ship's position is 12 days out of date.

Length 10 m.

Type: Sailing vessel. MMSI: 265610180.

Date/timePositionNaut miles runAvg speedWind from/ knotsBaromVisibWave heightAir tempDewpointWater temp
2017-Jul-08 10:56N 59°45' E 018°44'2 4.1
2017-Jul-08 10:29N 59°46' E 018°47'3 5.3
2017-Jul-08 10:00N 59°47' E 018°52'3 5.5
2017-Jul-08 09:30N 59°47' E 018°57'1 1.9
2017-Jul-08 08:55N 59°47' E 018°60'0 0.0
2017-Jul-07 18:33N 59°47' E 018°60'0 0.1
2017-Jul-07 18:30N 59°47' E 018°60'0 0.4
2017-Jul-07 18:00N 59°47' E 018°60'2 4.2
2017-Jul-07 17:30N 59°47' E 018°56'2 4.6
2017-Jul-07 17:00N 59°47' E 018°51'2 3.4
2017-Jul-07 16:30N 59°46' E 018°48'1 2.4
2017-Jul-07 16:00N 59°46' E 018°46'  
Track history (hours):
 
Tides and Currents Weather Stations Pressure Air Temp Water Temp Dewpoint Dewpoint Depression Visibility Wind Speed Wind Dir Waves Ship Positions

Azurina

Last reported at 2017-Jul-08 10:56 UTC. Time now 2017-Jul-21 08:45 UTC.
Position N 59°45' E 018°44'.
Warning: this ship's position is 12 days out of date.

Length 10 m.

Type: Sailing vessel. MMSI: 265610180.

Date/timePositionNaut miles runAvg speedWind from/ knotsBaromVisibWave heightAir tempDewpointWater temp
2017-Jul-08 10:56N 59°45' E 018°44'2 4.1
2017-Jul-08 10:29N 59°46' E 018°47'3 5.3
2017-Jul-08 10:00N 59°47' E 018°52'3 5.5
2017-Jul-08 09:30N 59°47' E 018°57'1 1.9
2017-Jul-08 08:55N 59°47' E 018°60'0 0.0
2017-Jul-07 18:33N 59°47' E 018°60'0 0.1
2017-Jul-07 18:30N 59°47' E 018°60'0 0.4
2017-Jul-07 18:00N 59°47' E 018°60'2 4.2
2017-Jul-07 17:30N 59°47' E 018°56'2 4.6
2017-Jul-07 17:00N 59°47' E 018°51'2 3.4
2017-Jul-07 16:30N 59°46' E 018°48'1 2.4
2017-Jul-07 16:00N 59°46' E 018°46'  

Dump ship's entire track history